Flight Track Log - Related Links

Times and Time Zones

All times are in EDT time to prevent confusion due to time zone crossing. See the KAP82 flight status page for this flight to view local times or setup timezone preferences in your user account.

Time Position Orientation Groundspeed Altitude Reporting Facility
EDT Latitude Longitude Course Direction KTS MPH feet Rate Location/Type
Thu 09:13:00 AM 41.4716 -70.2432 328° Northwest  Level Estimated
Thu 09:14:00 AM 41.5035 -70.2671 331° Northwest  Level FlightAware Approximate
Thu 09:15:00 AM 41.5353 -70.2910 331° Northwest  Level FlightAware Approximate
Thu 09:16:00 AM 41.5672 -70.3149 331° Northwest  Level FlightAware Approximate
Thu 09:17:00 AM 41.5990 -70.3389 331° Northwest  Level FlightAware Approximate
Thu 09:18:00 AM 41.6308 -70.3629 331° Northwest  Level FlightAware Approximate
Thu 09:19:00 AM 41.6627 -70.3869 331° Northwest  Level FlightAware Approximate
Thu 09:20:00 AM 41.6945 -70.4109 331° Northwest  Level FlightAware Approximate
Thu 09:20:13 AM 41.7000 -70.4000 331° Northwest 145 167 4,100  Level KA90
Thu 09:20:31 AM 41.7167 -70.4000 360° North 144 166 4,100  Level KA90
Thu 09:21:00 AM 41.7263 -70.4349 331° Northwest  Level FlightAware Approximate
Thu 09:21:31 AM 41.7500 -70.4333 323° Northwest 144 166 4,100  Level KA90
Thu 09:22:00 AM 41.7581 -70.4590 331° Northwest  Level FlightAware Approximate
Thu 09:22:31 AM 41.7667 -70.4667 304° West 140 161 4,100  Level KA90
Thu 09:23:00 AM 41.7899 -70.4831 331° Northwest  Level FlightAware Approximate
Thu 09:23:31 AM 41.8000 -70.5000 323° Northwest 143 165 4,100  Level KA90
Thu 09:24:00 AM 41.8217 -70.5072 331° Northwest  Level FlightAware Approximate
Thu 09:24:31 AM 41.8333 -70.5333 323° Northwest 147 169 4,100  Level KA90
Thu 09:25:00 AM 41.8535 -70.5313 331° Northwest  Level FlightAware Approximate
Thu 09:25:37 AM 41.8833 -70.5667 334° Northwest 143 165 4,100  Level KA90
Thu 09:26:37 AM 41.9167 -70.5833 340° North 143 165 4,100  Level KA90
Thu 09:27:37 AM 41.9500 -70.5833 360° North 150 173 4,100  Level KA90
Thu 09:28:37 AM 41.9833 -70.5833 360° North 147 169 4,100  Level KA90
Thu 09:29:37 AM 42.0333 -70.5833 360° North 152 175 4,100  Level KA90
Thu 09:30:37 AM 42.0667 -70.5667 20° North 151 174 4,100  Level KA90
Thu 09:31:37 AM 42.1167 -70.5500 14° North 159 183 4,100  Level KA90
Thu 09:32:37 AM 42.1500 -70.5167 37° Northeast 157 181 4,100  Level KA90
Thu 09:33:38 AM 42.2000 -70.5333 346° North 148 170 4,100  Level KA90
Thu 09:34:38 AM 42.2333 -70.5333 360° North 151 174 4,100  Level KA90
Thu 09:35:38 AM 42.2667 -70.5667 324° Northwest 157 181 4,100  Level KA90
Thu 09:36:38 AM 42.3000 -70.6000 324° Northwest 155 178 4,100  Level KA90
Thu 09:37:32 AM 42.3333 -70.6333 324° Northwest 161 185 4,100 -211 Level KA90
Thu 09:38:32 AM 42.3667 -70.6833 312° West 169 194 3,700 -450 Descending KA90
Thu 09:39:32 AM 42.4000 -70.7167 324° Northwest 179 206 3,200 -300 Descending KA90
Thu 09:40:32 AM 42.4333 -70.7667 312° West 159 183 3,100 -50 Descending KA90
Thu 09:41:32 AM 42.4833 -70.8000 334° Northwest 155 178 3,100  Level KA90
Thu 09:42:32 AM 42.5000 -70.8333 304° West 144 166 3,100  Level KA90
Thu 09:43:32 AM 42.5167 -70.8833 294° West 149 171 3,100 -350 Level KA90
Thu 09:44:32 AM 42.5000 -70.9333 246° West 175 201 2,400 -650 Descending KA90
Thu 09:45:32 AM 42.4500 -70.9667 206° Southwest 180 207 1,800 -667 Descending KA90
Thu 09:46:38 AM 42.4167 -70.9833 200° South 154 177 1,000 -762 Descending KA90
Thu 09:47:38 AM 42.3833 -71.0000 200° South 123 142 200 -800 Descending KA90
Thu 09:49:00 AM 42.3630 -71.0064 244° Southwest  Level Estimated
Thu 09:56:00 AM 42.3630 -71.0064 244° Southwest  Level Estimated

Login

Don't have an account? Register now (free) for customized features, flight alerts, and more!